Coolidge, AZ

3:20 PM MST on October 25, 2014 (GMT -0700)
Casa Grande Municipal | Change Station
CLOSE
Current Station
Airport
Location: Casa Grande,
Elevation: 1463 ft
Nearby Weather Stations

Elev 1463 ft 32.95 °N, 111.77 °W | Updated 5 minutes ago

Clear
Clear
95 °F
Feels Like 95 °F
N
0
Wind Variable Wind from North

Today
High -- | Low -- °F
--% Chance of Precip.
Yesterday
High -- | Low -- °F
Precip. -- in
6:38 AM 5:41 PM
Waxing Crescent, 4% visible
Pressure 29.95 in
Visibility 10.0 miles
Clouds Few 12000 ft
Dew Point 48 °F
Humidity 20%
Rainfall 0.00 in
Snow Depth Not available.
UV 2 out of 12
Pollen 5.40 out of 12
Ozone Good
Flu Activity No Activity
METAR KCGZ 252215Z AUTO 00000KT 10SM FEW120 35/09 A2995 RMK AO1

More Conditions Fewer Conditions

Pressure 29.95 in
Visibility 10.0 miles
Clouds Few 12000 ft
Dew Point 48 °F
Humidity 20%
Rainfall 0.00 in
Snow Depth Not available.
UV 2 out of 12
Pollen 5.40 out of 12
Ozone Good
Flu Activity No Activity
METAR KCGZ 252215Z AUTO 00000KT 10SM FEW120 35/09 A2995 RMK AO1

More Conditions Fewer Conditions

10-Day Weather Forecast

Almanac

Astronomy

Oct. 25, 2014 Rise Set
Actual Time 6:38 AM MST 5:41 PM MST
Civil Twilight 6:12 AM MST 6:06 PM MST
Nautical Twilight 5:44 AM MST 6:35 PM MST
Astronomical Twilight 5:15 AM MST 7:04 PM MST
Moon 8:16 AM MST 7:11 PM MST
Length of Visible Light 11h 53m
Length of Day
11h 03m
Tomorrow will be 1m 52s shorter.
Waxing Crescent, 4% of the Moon is Illuminated
Today
Waxing Crescent
Oct 30
First Quarter
Nov 6
Full
Nov 14
Last Quarter
Nov 22
New

Today's Extremes

State Highs State Lows

Community

WunderPhotos

Upload Photos

1,765,015 photos uploaded!

Nearby

Air Quality

  Air Quality AQ Index Pollutant
Yesterday Good
OZONE
Current Good
OZONE
Saturday Moderate
PM10
Saturday Good
OZONE
Sunday Moderate
PM10
Sunday Good
OZONE
Monday Moderate
PM10
Monday Good
OZONE
Tuesday Moderate
PM10
Tuesday Good
OZONE
Wednesday Moderate
PM10
Wednesday Good
OZONE

Snow Depth

Station Depth Elevation
Beaver Head 0 in 7990 ft
White Horse Lake 0 in 7180 ft

Earthquake Activity

City Distance Mag. Time & Date
No recent earthquake activity has been reported nearby.
Minimum magnitude displayed is 2.5.

Coastal Water Temperatures

Place Temperature
No Stations Reporting

Nearby Weather Stations